createdAt,value
2023-03-21T00:00:32.618Z,7.90
2023-03-21T00:01:34.432Z,8.25
2023-03-21T00:02:36.191Z,8.95
2023-03-21T00:03:38.113Z,9.38
2023-03-21T00:04:50.973Z,9.57
2023-03-21T00:05:54.320Z,8.40
2023-03-21T00:06:56.099Z,9.50
2023-03-21T00:07:58.071Z,8.93
2023-03-21T00:09:00.470Z,7.70
2023-03-21T00:10:14.343Z,6.97
2023-03-21T00:11:17.360Z,6.97
2023-03-21T00:12:21.199Z,7.10
2023-03-21T00:13:22.991Z,6.07
2023-03-21T00:14:26.189Z,6.38
2023-03-21T00:15:39.968Z,6.10
2023-03-21T00:16:51.529Z,6.60
2023-03-21T00:17:58.516Z,6.60
2023-03-21T00:19:03.371Z,6.53
2023-03-21T00:20:06.680Z,7.32
2023-03-21T00:21:39.158Z,5.88
2023-03-21T00:22:35.850Z,6.32
2023-03-21T00:23:37.624Z,6.78
2023-03-21T00:24:39.517Z,6.68
2023-03-21T00:25:41.305Z,6.43
2023-03-21T00:26:43.009Z,7.07
2023-03-21T00:28:01.077Z,7.22
2023-03-21T00:29:06.528Z,7.03
2023-03-21T00:30:08.953Z,7.65
2023-03-21T00:31:11.239Z,7.63
2023-03-21T00:32:12.939Z,7.25
2023-03-21T00:33:22.293Z,7.65
2023-03-21T00:34:36.433Z,6.78
2023-03-21T00:36:02.577Z,6.90
2023-03-21T00:37:08.170Z,6.53
2023-03-21T00:38:10.467Z,7.15
2023-03-21T00:39:12.242Z,7.00
2023-03-21T00:40:27.662Z,7.45
2023-03-21T00:41:41.843Z,6.53
2023-03-21T00:42:45.009Z,6.90
2023-03-21T00:43:46.728Z,6.35
2023-03-21T00:44:48.447Z,6.32
2023-03-21T00:45:51.457Z,5.55
2023-03-21T00:47:06.321Z,5.47
2023-03-21T00:48:09.044Z,5.00
2023-03-21T00:49:10.851Z,4.90
2023-03-21T00:50:12.604Z,4.97
2023-03-21T00:51:21.579Z,4.72
2023-03-21T00:52:38.100Z,4.88
2023-03-21T00:53:42.632Z,4.65
2023-03-21T00:54:44.366Z,4.47
2023-03-21T00:55:46.338Z,4.28
2023-03-21T00:56:48.127Z,4.05
2023-03-21T00:57:56.310Z,3.92
2023-03-21T00:59:03.150Z,4.00
2023-03-21T01:00:07.735Z,4.05
2023-03-21T01:01:09.799Z,4.13
2023-03-21T01:02:15.161Z,4.20
2023-03-21T01:03:25.001Z,4.30
2023-03-21T01:04:28.520Z,3.92
2023-03-21T01:05:49.466Z,4.55
2023-03-21T01:06:51.150Z,4.00
2023-03-21T01:07:53.411Z,4.10
2023-03-21T01:08:55.223Z,3.83
2023-03-21T01:09:57.004Z,4.18
2023-03-21T01:11:02.971Z,4.05
2023-03-21T01:12:04.734Z,4.05
2023-03-21T01:13:06.478Z,4.28
2023-03-21T01:14:21.270Z,4.35
2023-03-21T01:15:24.022Z,4.50
2023-03-21T01:16:25.909Z,4.72
2023-03-21T01:17:27.676Z,4.68
2023-03-21T01:18:30.659Z,5.35
2023-03-21T01:19:48.621Z,4.68
2023-03-21T01:20:54.532Z,5.68
2023-03-21T01:21:57.636Z,5.75
2023-03-21T01:22:59.382Z,5.97
2023-03-21T01:24:01.905Z,6.05
2023-03-21T01:25:21.293Z,5.80
2023-03-21T01:26:24.443Z,6.30
2023-03-21T01:27:26.219Z,6.20
2023-03-21T01:28:28.977Z,6.10
2023-03-21T01:29:30.697Z,5.68
2023-03-21T01:30:37.017Z,5.90
2023-03-21T01:31:43.622Z,5.93
2023-03-21T01:32:45.431Z,6.65
2023-03-21T01:33:47.962Z,6.53
2023-03-21T01:34:49.697Z,6.15
2023-03-21T01:35:57.563Z,6.25
2023-03-21T01:37:04.959Z,6.53
2023-03-21T01:38:07.202Z,7.10
2023-03-21T01:39:08.951Z,5.70
2023-03-21T01:40:23.841Z,6.43
2023-03-21T01:41:45.782Z,6.28
2023-03-21T01:42:47.547Z,5.97
2023-03-21T01:43:49.365Z,4.60
2023-03-21T01:44:58.443Z,4.45
2023-03-21T01:46:51.466Z,4.47
2023-03-21T01:47:59.049Z,4.85
2023-03-21T01:49:06.964Z,5.05
2023-03-21T01:50:09.010Z,4.57
2023-03-21T01:51:13.119Z,4.05
2023-03-21T01:52:35.849Z,3.92
2023-03-21T01:53:40.764Z,4.30
2023-03-21T01:54:43.993Z,4.38
2023-03-21T01:55:47.900Z,4.75
2023-03-21T01:56:49.672Z,5.57
2023-03-21T01:58:05.421Z,4.80
2023-03-21T01:59:13.457Z,5.45
2023-03-21T02:00:16.094Z,5.57
2023-03-21T02:01:22.954Z,6.22
2023-03-21T02:02:30.075Z,5.55
2023-03-21T02:03:38.646Z,6.53
2023-03-21T02:04:41.139Z,6.13
2023-03-21T02:05:48.889Z,6.40
2023-03-21T02:06:59.217Z,7.55
2023-03-21T02:08:00.983Z,7.38
2023-03-21T02:09:08.783Z,6.53
2023-03-21T02:10:13.823Z,7.40
2023-03-21T02:11:17.209Z,8.30
2023-03-21T02:12:19.763Z,8.27
2023-03-21T02:13:21.770Z,7.68
2023-03-21T02:14:29.242Z,8.13
2023-03-21T02:15:31.547Z,7.40
2023-03-21T02:16:36.109Z,6.93
2023-03-21T02:17:49.765Z,7.32
2023-03-21T02:19:00.745Z,7.60
2023-03-21T02:20:36.782Z,6.78
2023-03-21T02:22:01.212Z,6.80
2023-03-21T02:23:21.394Z,8.27
2023-03-21T02:24:32.565Z,8.80
2023-03-21T02:25:43.462Z,9.15
2023-03-21T02:27:24.101Z,9.40
2023-03-21T02:28:32.973Z,10.70
2023-03-21T02:29:40.385Z,9.65
2023-03-21T02:31:36.603Z,9.43
2023-03-21T02:33:11.188Z,9.55
2023-03-21T02:34:29.932Z,9.57
2023-03-21T02:35:58.639Z,10.52
2023-03-21T02:37:14.011Z,9.38
2023-03-21T02:38:32.863Z,9.38
2023-03-21T02:39:48.720Z,10.55
2023-03-21T02:40:56.819Z,9.88
2023-03-21T02:42:10.303Z,10.45
2023-03-21T02:43:32.109Z,9.52
2023-03-21T02:44:45.569Z,10.02
2023-03-21T02:46:11.118Z,10.45
2023-03-21T02:47:26.544Z,10.35
2023-03-21T02:48:44.754Z,10.18
2023-03-21T02:50:24.329Z,9.52
2023-03-21T02:51:27.958Z,9.52
2023-03-21T02:52:39.029Z,8.65
2023-03-21T02:53:50.524Z,10.30
2023-03-21T02:54:55.474Z,11.48
2023-03-21T02:55:59.307Z,10.73
2023-03-21T02:57:04.543Z,10.73
2023-03-21T02:58:13.415Z,9.77
2023-03-21T02:59:18.087Z,10.95
2023-03-21T03:00:26.744Z,11.43
2023-03-21T03:01:29.174Z,12.65
2023-03-21T03:02:31.004Z,10.80
2023-03-21T03:03:34.687Z,11.50
2023-03-21T03:04:36.766Z,11.90
2023-03-21T03:05:52.196Z,12.20
2023-03-21T03:07:31.648Z,11.63
2023-03-21T03:09:03.239Z,10.45
2023-03-21T03:10:26.308Z,12.75
2023-03-21T03:11:40.102Z,12.27
2023-03-21T03:13:13.374Z,12.63
2023-03-21T03:14:59.867Z,13.05
2023-03-21T03:16:16.470Z,13.30
2023-03-21T03:17:57.389Z,13.65
2023-03-21T03:19:01.349Z,13.55
2023-03-21T03:20:19.414Z,14.10
2023-03-21T03:21:30.615Z,13.88
2023-03-21T03:22:46.295Z,14.07
2023-03-21T03:24:10.560Z,14.68
2023-03-21T03:25:26.959Z,15.05
2023-03-21T03:26:37.207Z,15.18
2023-03-21T03:27:44.209Z,15.38
2023-03-21T03:28:52.976Z,15.90
2023-03-21T03:29:57.110Z,14.70
2023-03-21T03:31:09.127Z,14.13
2023-03-21T03:32:12.120Z,14.05
2023-03-21T03:33:17.274Z,13.85
2023-03-21T03:34:22.390Z,12.35
2023-03-21T03:35:26.368Z,12.82
2023-03-21T03:36:35.949Z,13.25
2023-03-21T03:37:40.380Z,11.85
2023-03-21T03:38:43.910Z,13.50
2023-03-21T03:39:59.157Z,13.45
2023-03-21T03:41:14.827Z,13.93
2023-03-21T03:42:28.813Z,14.00
2023-03-21T03:43:38.323Z,14.57
2023-03-21T03:44:40.402Z,14.48
2023-03-21T03:45:47.750Z,14.45
2023-03-21T03:47:11.814Z,14.23
2023-03-21T03:48:46.544Z,14.25
2023-03-21T03:49:59.902Z,13.40
2023-03-21T03:51:07.571Z,13.23
2023-03-21T03:52:22.836Z,13.38
2023-03-21T03:53:35.252Z,12.93
2023-03-21T03:54:41.606Z,13.27
2023-03-21T03:55:44.130Z,13.75
2023-03-21T03:56:47.010Z,13.88
2023-03-21T03:57:49.586Z,13.43
2023-03-21T03:58:51.504Z,13.23
2023-03-21T03:59:53.609Z,13.20
2023-03-21T04:00:56.160Z,13.68
2023-03-21T04:01:57.885Z,14.60
2023-03-21T04:03:00.384Z,14.25
2023-03-21T04:04:12.592Z,13.77
2023-03-21T04:05:15.422Z,13.57
2023-03-21T04:06:18.008Z,14.43
2023-03-21T04:07:21.678Z,16.58
2023-03-21T04:08:23.486Z,13.32
2023-03-21T04:09:42.579Z,12.77
2023-03-21T04:10:45.820Z,13.15
2023-03-21T04:11:48.319Z,12.95
2023-03-21T04:12:50.222Z,13.05
2023-03-21T04:13:52.159Z,15.43
2023-03-21T04:14:56.991Z,11.90
2023-03-21T04:16:04.891Z,12.98
2023-03-21T04:17:06.638Z,12.77
2023-03-21T04:18:08.347Z,13.57
2023-03-21T04:19:10.059Z,14.05
2023-03-21T04:20:20.747Z,14.07
2023-03-21T04:21:29.158Z,13.48
2023-03-21T04:22:31.279Z,13.45
2023-03-21T04:23:33.486Z,13.65
2023-03-21T04:24:37.592Z,13.20
2023-03-21T04:25:47.573Z,13.88
2023-03-21T04:26:55.834Z,16.48
2023-03-21T04:27:57.573Z,14.30
2023-03-21T04:29:01.048Z,13.80
2023-03-21T04:30:04.334Z,14.95
2023-03-21T04:31:22.620Z,15.88
2023-03-21T04:32:27.768Z,14.07
2023-03-21T04:33:29.465Z,15.02
2023-03-21T04:34:31.223Z,14.63
2023-03-21T04:35:37.066Z,14.60
2023-03-21T04:36:39.536Z,13.70
2023-03-21T04:37:41.697Z,15.43
2023-03-21T04:38:45.918Z,13.80
2023-03-21T04:39:48.084Z,16.48
2023-03-21T04:40:49.960Z,16.63
2023-03-21T04:41:51.720Z,13.18
2023-03-21T04:42:53.554Z,14.43
2023-03-21T04:43:55.975Z,15.50
2023-03-21T04:44:57.674Z,15.05
2023-03-21T04:45:59.490Z,16.27
2023-03-21T04:47:01.267Z,14.57
2023-03-21T04:48:03.036Z,15.05
2023-03-21T04:49:07.115Z,15.13
2023-03-21T04:50:10.843Z,16.55
2023-03-21T04:51:12.627Z,16.60
2023-03-21T04:52:15.585Z,15.65
2023-03-21T04:53:17.638Z,14.70
2023-03-21T04:54:19.476Z,14.35
2023-03-21T04:55:21.786Z,15.05
2023-03-21T04:56:32.880Z,15.93
2023-03-21T04:57:34.619Z,16.17
2023-03-21T04:58:36.304Z,13.98
2023-03-21T04:59:38.113Z,14.80
2023-03-21T05:00:40.290Z,16.33
2023-03-21T05:01:43.967Z,14.75
2023-03-21T05:02:46.271Z,14.68
2023-03-21T05:03:48.041Z,16.70
2023-03-21T05:04:49.749Z,16.20
2023-03-21T05:05:51.510Z,15.48
2023-03-21T05:06:54.257Z,17.10
2023-03-21T05:07:55.951Z,15.73
2023-03-21T05:09:01.884Z,16.73
2023-03-21T05:10:04.731Z,18.85
2023-03-21T05:11:06.581Z,20.50
2023-03-21T05:12:08.287Z,18.58
2023-03-21T05:13:10.094Z,17.80
2023-03-21T05:14:15.720Z,19.42
2023-03-21T05:15:17.468Z,17.50
2023-03-21T05:16:19.205Z,18.85
2023-03-21T05:17:23.421Z,19.77
2023-03-21T05:18:25.297Z,19.65
2023-03-21T05:19:36.440Z,17.42
2023-03-21T05:20:43.027Z,19.83
2023-03-21T05:21:45.288Z,16.60
2023-03-21T05:22:50.766Z,19.13
2023-03-21T05:23:55.372Z,18.95
2023-03-21T05:24:57.100Z,16.63
2023-03-21T05:25:58.882Z,17.55
2023-03-21T05:27:04.200Z,16.67
2023-03-21T05:28:07.679Z,18.20
2023-03-21T05:29:09.593Z,18.33
2023-03-21T05:30:14.594Z,17.98
2023-03-21T05:31:18.074Z,19.17
2023-03-21T05:32:19.864Z,18.23
2023-03-21T05:33:21.556Z,18.05
2023-03-21T05:34:23.981Z,18.45
2023-03-21T05:35:26.934Z,18.70
2023-03-21T05:36:28.720Z,18.42
2023-03-21T05:37:30.498Z,19.05
2023-03-21T05:38:32.501Z,19.17
2023-03-21T05:39:34.242Z,17.75
2023-03-21T05:40:35.950Z,18.02
2023-03-21T05:41:37.684Z,18.30
2023-03-21T05:42:39.468Z,18.90
2023-03-21T05:43:41.190Z,18.73
2023-03-21T05:44:42.911Z,19.02
2023-03-21T05:45:44.608Z,18.95
2023-03-21T05:46:46.316Z,18.58
2023-03-21T05:47:48.066Z,19.15
2023-03-21T05:48:49.836Z,19.35
2023-03-21T05:49:51.634Z,19.98
2023-03-21T05:50:54.734Z,18.88
2023-03-21T05:51:56.492Z,20.45
2023-03-21T05:52:58.221Z,19.55
2023-03-21T05:53:59.911Z,19.23
2023-03-21T05:55:01.681Z,19.17
2023-03-21T05:56:03.982Z,18.83
2023-03-21T05:57:06.413Z,18.73
2023-03-21T05:58:08.153Z,19.83
2023-03-21T05:59:09.881Z,19.88
2023-03-21T06:00:12.424Z,21.33
2023-03-21T06:01:14.131Z,20.67
2023-03-21T06:02:16.241Z,20.65
2023-03-21T06:03:18.012Z,20.45
2023-03-21T06:04:19.739Z,21.15
2023-03-21T06:05:21.487Z,20.48
2023-03-21T06:06:23.274Z,21.33
2023-03-21T06:07:24.967Z,22.27
2023-03-21T06:08:26.814Z,21.25
2023-03-21T06:09:28.567Z,21.08
2023-03-21T06:10:30.275Z,20.67
2023-03-21T06:11:34.790Z,19.90
2023-03-21T06:12:37.065Z,19.48
2023-03-21T06:13:38.748Z,21.98
2023-03-21T06:14:40.498Z,22.30
2023-03-21T06:15:42.328Z,21.58
2023-03-21T06:16:44.322Z,21.40
2023-03-21T06:17:46.016Z,20.90
2023-03-21T06:18:47.720Z,18.60
2023-03-21T06:19:49.446Z,20.75
2023-03-21T06:20:51.159Z,19.67
2023-03-21T06:21:52.903Z,19.95
2023-03-21T06:22:54.637Z,19.05
2023-03-21T06:23:56.341Z,19.60
2023-03-21T06:24:58.149Z,19.48
2023-03-21T06:25:59.850Z,21.38
2023-03-21T06:27:03.967Z,19.55
2023-03-21T06:28:06.087Z,19.45
2023-03-21T06:29:07.790Z,20.08
2023-03-21T06:30:10.440Z,18.05
2023-03-21T06:31:12.197Z,19.92
2023-03-21T06:32:14.030Z,18.50
2023-03-21T06:33:15.809Z,17.23
2023-03-21T06:34:17.540Z,17.48
2023-03-21T06:35:19.291Z,18.88
2023-03-21T06:36:20.983Z,18.08
2023-03-21T06:37:22.765Z,18.73
2023-03-21T06:38:25.741Z,18.70
2023-03-21T06:39:27.467Z,19.92
2023-03-21T06:40:29.171Z,20.10
2023-03-21T06:41:30.880Z,18.83
2023-03-21T06:42:32.753Z,20.45
2023-03-21T06:43:35.360Z,19.63
2023-03-21T06:44:37.155Z,19.23
2023-03-21T06:45:39.132Z,19.70
2023-03-21T06:46:41.330Z,19.70
2023-03-21T06:47:43.074Z,19.45
2023-03-21T06:48:45.036Z,20.25
2023-03-21T06:49:46.764Z,20.45
2023-03-21T06:50:50.413Z,20.00
2023-03-21T06:51:52.124Z,21.50
2023-03-21T06:52:54.021Z,20.05
2023-03-21T06:53:55.812Z,21.45
2023-03-21T06:54:57.502Z,18.27
2023-03-21T06:55:59.225Z,20.52
2023-03-21T06:57:01.025Z,19.58
2023-03-21T06:58:03.084Z,19.20
2023-03-21T06:59:05.514Z,20.23
2023-03-21T07:00:09.161Z,19.35
2023-03-21T07:01:11.059Z,20.88
2023-03-21T07:02:13.006Z,20.05
2023-03-21T07:03:15.309Z,21.50
2023-03-21T07:04:17.050Z,19.80
2023-03-21T07:05:18.791Z,19.13
2023-03-21T07:06:20.519Z,21.27
2023-03-21T07:07:26.475Z,20.20
2023-03-21T07:08:28.169Z,21.08
2023-03-21T07:09:29.922Z,21.85
2023-03-21T07:10:32.269Z,21.90
2023-03-21T07:11:36.233Z,20.10
2023-03-21T07:12:38.076Z,20.75
2023-03-21T07:13:39.850Z,19.95
2023-03-21T07:14:41.562Z,22.08
2023-03-21T07:15:43.323Z,22.23
2023-03-21T07:16:45.271Z,21.98
2023-03-21T07:17:47.112Z,23.52
2023-03-21T07:18:49.058Z,21.42
2023-03-21T07:19:50.955Z,20.55
2023-03-21T07:20:52.683Z,21.27
2023-03-21T07:21:54.422Z,21.67
2023-03-21T07:22:56.379Z,21.27
2023-03-21T07:23:58.077Z,21.77
2023-03-21T07:25:05.001Z,21.85
2023-03-21T07:26:08.982Z,21.55
2023-03-21T07:27:11.110Z,20.27
2023-03-21T07:28:12.999Z,20.55
2023-03-21T07:29:15.482Z,19.75
2023-03-21T07:30:17.478Z,19.63
2023-03-21T07:31:20.629Z,18.88
2023-03-21T07:32:22.787Z,21.23
2023-03-21T07:33:25.472Z,19.70
2023-03-21T07:34:33.166Z,19.55
2023-03-21T07:35:36.749Z,19.55
2023-03-21T07:36:38.705Z,20.02
2023-03-21T07:37:40.886Z,18.67
2023-03-21T07:38:46.455Z,18.30
2023-03-21T07:39:48.186Z,16.80
2023-03-21T07:40:50.568Z,17.85
2023-03-21T07:41:52.249Z,17.85
2023-03-21T07:42:53.928Z,18.85
2023-03-21T07:43:55.706Z,18.70
2023-03-21T07:44:57.732Z,18.23
2023-03-21T07:46:00.165Z,17.10
2023-03-21T07:47:01.867Z,17.25
2023-03-21T07:48:03.859Z,17.30
2023-03-21T07:49:06.411Z,17.38
2023-03-21T07:50:08.714Z,14.75
2023-03-21T07:51:10.531Z,13.80
2023-03-21T07:52:13.054Z,16.92
2023-03-21T07:53:14.790Z,17.90
2023-03-21T07:54:19.410Z,18.70
2023-03-21T07:55:21.526Z,19.42
2023-03-21T07:56:23.338Z,20.83
2023-03-21T07:57:25.022Z,18.75
2023-03-21T07:58:27.405Z,19.98
2023-03-21T07:59:29.116Z,16.02
2023-03-21T08:00:31.602Z,14.93
2023-03-21T08:01:33.454Z,14.32
2023-03-21T08:02:35.256Z,16.40
2023-03-21T08:03:38.146Z,16.17
2023-03-21T08:04:40.215Z,14.40
2023-03-21T08:05:42.359Z,16.13
2023-03-21T08:06:44.228Z,15.18
2023-03-21T08:07:46.453Z,14.35
2023-03-21T08:08:48.357Z,15.88
2023-03-21T08:09:50.365Z,15.90
2023-03-21T08:10:52.108Z,15.25
2023-03-21T08:11:53.801Z,14.63
2023-03-21T08:12:55.529Z,15.68
2023-03-21T08:13:58.314Z,16.75
2023-03-21T08:15:01.191Z,17.75
2023-03-21T08:16:03.190Z,15.68
2023-03-21T08:17:06.254Z,16.05
2023-03-21T08:18:08.559Z,16.40
2023-03-21T08:19:10.432Z,14.90
2023-03-21T08:20:18.651Z,14.73
2023-03-21T08:21:20.414Z,15.27
2023-03-21T08:22:22.210Z,13.73
2023-03-21T08:23:24.910Z,13.43
2023-03-21T08:24:27.505Z,12.90
2023-03-21T08:25:29.273Z,12.05
2023-03-21T08:26:32.250Z,11.30
2023-03-21T08:27:35.372Z,12.10
2023-03-21T08:28:39.500Z,12.07
2023-03-21T08:29:42.515Z,12.70
2023-03-21T08:30:44.361Z,12.82
2023-03-21T08:31:46.319Z,14.15
2023-03-21T08:32:48.761Z,15.63
2023-03-21T08:33:54.962Z,14.30
2023-03-21T08:35:02.583Z,14.23
2023-03-21T08:36:06.269Z,14.45
2023-03-21T08:37:08.114Z,15.55
2023-03-21T08:38:10.203Z,14.55
2023-03-21T08:39:11.933Z,13.88
2023-03-21T08:40:16.185Z,12.80
2023-03-21T08:41:19.390Z,12.20
2023-03-21T08:42:23.370Z,12.10
2023-03-21T08:43:25.080Z,12.73
2023-03-21T08:44:27.672Z,12.23
2023-03-21T08:45:29.826Z,12.18
2023-03-21T08:46:31.942Z,12.75
2023-03-21T08:47:33.943Z,14.07
2023-03-21T08:48:38.888Z,13.70
2023-03-21T08:49:41.804Z,14.00
2023-03-21T08:50:43.857Z,14.90
2023-03-21T08:51:48.395Z,14.80
2023-03-21T08:52:50.276Z,15.02
2023-03-21T08:53:52.437Z,14.88
2023-03-21T08:54:55.086Z,14.02
2023-03-21T08:55:56.844Z,13.63
2023-03-21T08:56:59.065Z,13.13
2023-03-21T08:58:01.061Z,12.30
2023-03-21T08:59:02.950Z,12.82
2023-03-21T09:00:13.208Z,16.27
2023-03-21T09:01:15.994Z,14.80
2023-03-21T09:02:18.113Z,14.15
2023-03-21T09:03:20.517Z,15.23
2023-03-21T09:04:22.319Z,14.60
2023-03-21T09:05:25.953Z,13.45
2023-03-21T09:06:28.154Z,13.02
2023-03-21T09:07:34.126Z,12.68
2023-03-21T09:08:35.862Z,12.23
2023-03-21T09:09:37.651Z,13.13
2023-03-21T09:10:39.764Z,12.48
2023-03-21T09:11:42.344Z,11.23
2023-03-21T09:12:44.442Z,11.60
2023-03-21T09:13:46.313Z,11.25
2023-03-21T09:14:48.154Z,10.23
2023-03-21T09:15:49.966Z,11.50
2023-03-21T09:16:52.192Z,9.82
2023-03-21T09:17:54.673Z,10.88
2023-03-21T09:18:59.206Z,10.77
2023-03-21T09:20:11.059Z,10.55
2023-03-21T09:21:14.759Z,10.52
2023-03-21T09:22:21.440Z,11.25
2023-03-21T09:23:23.504Z,10.23
2023-03-21T09:24:26.486Z,11.10
2023-03-21T09:25:31.440Z,10.50
2023-03-21T09:26:33.711Z,11.00
2023-03-21T09:27:36.061Z,11.48
2023-03-21T09:28:39.119Z,11.10
2023-03-21T09:29:43.510Z,11.63
2023-03-21T09:30:45.404Z,10.90
2023-03-21T09:31:47.462Z,12.02
2023-03-21T09:32:50.720Z,11.68
2023-03-21T09:33:53.336Z,12.27
2023-03-21T09:34:57.489Z,11.52
2023-03-21T09:36:00.655Z,11.63
2023-03-21T09:37:03.570Z,12.20
2023-03-21T09:38:05.700Z,11.98
2023-03-21T09:39:07.501Z,11.35
2023-03-21T09:40:29.271Z,10.15
2023-03-21T09:41:49.227Z,10.65
2023-03-21T09:43:22.088Z,11.05
2023-03-21T09:45:17.681Z,11.23
2023-03-21T09:46:22.253Z,11.45
2023-03-21T09:47:33.184Z,10.50
2023-03-21T09:48:54.352Z,10.32
2023-03-21T09:50:13.997Z,10.38
2023-03-21T09:51:19.494Z,10.50
2023-03-21T09:52:27.205Z,9.60
2023-03-21T09:53:35.630Z,10.40
2023-03-21T09:54:40.701Z,10.40
2023-03-21T09:55:44.657Z,9.90
2023-03-21T09:56:47.391Z,10.32
2023-03-21T09:57:56.627Z,10.25
2023-03-21T09:59:00.816Z,10.68
2023-03-21T10:00:14.943Z,9.95
2023-03-21T10:01:28.536Z,9.52
2023-03-21T10:02:47.261Z,10.68
2023-03-21T10:03:54.541Z,10.00
2023-03-21T10:04:56.276Z,9.93
2023-03-21T10:06:01.305Z,9.27
2023-03-21T10:07:04.140Z,10.38
2023-03-21T10:08:25.082Z,11.05
2023-03-21T10:09:28.699Z,9.35
2023-03-21T10:10:43.860Z,9.80
2023-03-21T10:11:50.572Z,9.98
2023-03-21T10:12:55.089Z,9.98
2023-03-21T10:14:07.725Z,9.63
2023-03-21T10:15:16.510Z,10.10
2023-03-21T10:16:33.291Z,9.70
2023-03-21T10:17:44.092Z,9.93
2023-03-21T10:18:46.984Z,10.27
2023-03-21T10:19:56.188Z,9.20
2023-03-21T10:20:58.371Z,9.50
2023-03-21T10:22:02.373Z,8.80
2023-03-21T10:23:08.093Z,9.25
2023-03-21T10:24:17.525Z,10.63
2023-03-21T10:25:50.759Z,9.43
2023-03-21T10:26:54.161Z,9.50
2023-03-21T10:27:55.944Z,9.70
2023-03-21T10:29:02.491Z,8.93
2023-03-21T10:30:07.749Z,9.32
2023-03-21T10:31:14.419Z,10.00
2023-03-21T10:32:18.271Z,9.77
2023-03-21T10:33:24.857Z,9.27
2023-03-21T10:34:38.623Z,9.63
2023-03-21T10:35:44.662Z,9.02
2023-03-21T10:36:46.771Z,9.70
2023-03-21T10:37:48.667Z,10.05
2023-03-21T10:38:55.167Z,10.35
2023-03-21T10:39:57.974Z,8.98
2023-03-21T10:40:59.752Z,10.57
2023-03-21T10:42:01.641Z,9.68
2023-03-21T10:43:20.218Z,9.52
2023-03-21T10:44:22.226Z,10.07
2023-03-21T10:45:24.735Z,8.88
2023-03-21T10:46:27.477Z,9.02
2023-03-21T10:47:34.648Z,10.02
2023-03-21T10:48:39.173Z,10.02
2023-03-21T10:50:05.888Z,9.85
2023-03-21T10:51:05.228Z,10.10
2023-03-21T10:52:11.181Z,9.60
2023-03-21T10:53:20.553Z,10.18
2023-03-21T10:54:28.373Z,9.88
2023-03-21T10:55:33.179Z,9.68
2023-03-21T10:56:50.521Z,9.27
2023-03-21T10:58:10.970Z,9.40
2023-03-21T10:59:20.487Z,9.10
2023-03-21T11:00:26.254Z,9.35
2023-03-21T11:01:43.676Z,8.98
2023-03-21T11:02:49.883Z,8.45
2023-03-21T11:03:58.092Z,8.38
2023-03-21T11:05:06.415Z,8.82
2023-03-21T11:06:34.192Z,8.48
2023-03-21T11:07:37.823Z,7.65
2023-03-21T11:08:45.247Z,8.63
2023-03-21T11:09:59.470Z,7.90
2023-03-21T11:11:06.400Z,8.48
2023-03-21T11:12:33.452Z,8.30
2023-03-21T11:13:43.056Z,9.10
2023-03-21T11:14:51.234Z,8.63
2023-03-21T11:16:09.302Z,9.93
2023-03-21T11:17:17.056Z,8.50
2023-03-21T11:18:22.101Z,7.97
2023-03-21T11:19:33.812Z,8.30
2023-03-21T11:20:43.616Z,8.40
2023-03-21T11:21:45.754Z,8.27
2023-03-21T11:22:49.383Z,7.78
2023-03-21T11:23:52.935Z,8.15
2023-03-21T11:25:02.080Z,7.75
2023-03-21T11:26:10.471Z,8.35
2023-03-21T11:27:12.857Z,8.05
2023-03-21T11:28:19.664Z,8.27
2023-03-21T11:29:31.612Z,8.15
2023-03-21T11:30:33.768Z,8.18
2023-03-21T11:31:42.110Z,8.25
2023-03-21T11:32:43.883Z,7.93
2023-03-21T11:33:53.891Z,7.88
2023-03-21T11:35:09.383Z,7.88
2023-03-21T11:36:17.286Z,7.68
2023-03-21T11:37:27.507Z,8.00
2023-03-21T11:38:39.990Z,7.43
2023-03-21T11:39:44.399Z,7.88
2023-03-21T11:40:56.681Z,7.95
2023-03-21T11:41:58.438Z,7.90
2023-03-21T11:43:03.393Z,7.82
2023-03-21T11:44:05.138Z,7.03
2023-03-21T11:45:20.933Z,6.82
2023-03-21T11:46:27.901Z,8.48
2023-03-21T11:47:31.640Z,8.77
2023-03-21T11:48:42.339Z,8.38
2023-03-21T11:49:44.043Z,8.32
2023-03-21T11:50:49.377Z,9.32
2023-03-21T11:52:14.358Z,8.90
2023-03-21T11:53:36.777Z,8.52
2023-03-21T11:54:58.876Z,9.07
2023-03-21T11:56:27.547Z,7.38
2023-03-21T11:58:00.166Z,8.05
2023-03-21T11:59:05.073Z,8.52
2023-03-21T12:00:17.828Z,7.78
2023-03-21T12:01:49.623Z,8.30
2023-03-21T12:03:16.942Z,7.55
2023-03-21T12:04:42.998Z,8.40
2023-03-21T12:06:06.171Z,8.55
2023-03-21T12:07:07.851Z,8.65
2023-03-21T12:08:09.598Z,9.13
2023-03-21T12:09:28.612Z,9.98
2023-03-21T12:10:42.357Z,8.45
2023-03-21T12:12:05.778Z,9.30
2023-03-21T12:13:34.631Z,9.77
2023-03-21T12:14:47.609Z,9.57
2023-03-21T12:15:58.545Z,8.82
2023-03-21T12:17:10.613Z,10.85
2023-03-21T12:18:42.914Z,10.20
2023-03-21T12:20:00.749Z,10.00
2023-03-21T12:21:14.108Z,11.23
2023-03-21T12:22:34.021Z,10.25
2023-03-21T12:24:01.433Z,10.73
2023-03-21T12:25:15.382Z,10.05
2023-03-21T12:26:27.210Z,10.23
2023-03-21T12:27:35.623Z,9.80
2023-03-21T12:28:58.324Z,10.77
2023-03-21T12:30:12.414Z,10.82
2023-03-21T12:31:17.294Z,10.82
2023-03-21T12:32:18.951Z,10.68
2023-03-21T12:33:39.476Z,9.90
2023-03-21T12:35:08.235Z,11.27
2023-03-21T12:36:28.552Z,10.68
2023-03-21T12:37:48.330Z,10.45
2023-03-21T12:39:05.166Z,10.95
2023-03-21T12:40:36.232Z,9.45
2023-03-21T12:41:45.232Z,11.75
2023-03-21T12:43:03.384Z,11.85
2023-03-21T12:44:11.447Z,10.93
2023-03-21T12:45:24.746Z,10.73
2023-03-21T12:46:43.612Z,10.30
2023-03-21T12:48:02.725Z,9.93
2023-03-21T12:49:35.435Z,9.90
2023-03-21T12:50:39.093Z,10.15
2023-03-21T12:51:46.531Z,10.23
2023-03-21T12:52:54.217Z,12.23
2023-03-21T12:54:06.168Z,11.52
2023-03-21T12:55:31.676Z,10.23
2023-03-21T12:56:57.209Z,10.30
2023-03-21T12:58:04.993Z,9.27
2023-03-21T12:59:38.676Z,9.52
2023-03-21T13:00:43.616Z,9.68
2023-03-21T13:01:49.292Z,10.27
2023-03-21T13:03:02.959Z,9.55
2023-03-21T13:04:09.559Z,9.23
2023-03-21T13:06:01.115Z,8.35
2023-03-21T13:07:05.694Z,8.35
2023-03-21T13:08:16.031Z,8.73
2023-03-21T13:09:37.609Z,8.02
2023-03-21T13:10:42.245Z,8.63
2023-03-21T13:11:45.740Z,7.93
2023-03-21T13:13:14.386Z,8.07
2023-03-21T13:14:24.258Z,8.35
2023-03-21T13:15:48.192Z,8.73
2023-03-21T13:17:01.627Z,8.65
2023-03-21T13:18:19.461Z,8.55
2023-03-21T13:19:37.233Z,8.02
2023-03-21T13:20:56.525Z,8.75
2023-03-21T13:22:06.930Z,8.18
2023-03-21T13:23:09.152Z,7.78
2023-03-21T13:24:32.210Z,8.23
2023-03-21T13:25:47.163Z,7.80
2023-03-21T13:26:51.774Z,8.23
2023-03-21T13:28:03.164Z,7.95
2023-03-21T13:29:34.011Z,7.65
2023-03-21T13:30:36.176Z,7.70
2023-03-21T13:31:51.732Z,8.27
2023-03-21T13:33:07.276Z,8.10
2023-03-21T13:34:09.855Z,8.50
2023-03-21T13:35:27.443Z,8.75
2023-03-21T13:36:34.188Z,8.63
2023-03-21T13:37:40.555Z,8.48
2023-03-21T13:38:43.404Z,9.10
2023-03-21T13:39:49.838Z,9.35
2023-03-21T13:40:58.624Z,9.10
2023-03-21T13:42:06.634Z,8.88
2023-03-21T13:43:40.333Z,8.85
2023-03-21T13:44:50.305Z,8.95
2023-03-21T13:45:53.578Z,8.93
2023-03-21T13:47:22.018Z,9.23
2023-03-21T13:48:32.430Z,9.50
2023-03-21T13:49:38.391Z,10.23
2023-03-21T13:50:53.450Z,9.63
2023-03-21T13:51:58.610Z,9.70
2023-03-21T13:53:19.628Z,10.45
2023-03-21T13:54:24.607Z,10.45
2023-03-21T13:55:28.908Z,10.63
2023-03-21T13:56:50.481Z,10.80
2023-03-21T13:57:52.218Z,10.80
2023-03-21T13:58:58.524Z,10.13
2023-03-21T14:00:20.103Z,10.27
2023-03-21T14:01:39.544Z,9.50
2023-03-21T14:02:53.663Z,9.15
2023-03-21T14:04:15.642Z,8.85
2023-03-21T14:05:21.598Z,9.48
2023-03-21T14:06:26.701Z,8.77
2023-03-21T14:07:34.786Z,9.18
2023-03-21T14:08:39.777Z,10.18
2023-03-21T14:09:53.101Z,10.43
2023-03-21T14:10:59.859Z,9.90
2023-03-21T14:12:07.595Z,10.85
2023-03-21T14:13:16.405Z,10.90
2023-03-21T14:14:20.906Z,11.30
2023-03-21T14:15:54.924Z,9.85
2023-03-21T14:16:57.508Z,10.32
2023-03-21T14:18:10.895Z,10.57
2023-03-21T14:19:31.571Z,9.90
2023-03-21T14:20:39.329Z,10.23
2023-03-21T14:21:50.395Z,10.57
2023-03-21T14:22:52.449Z,10.75
2023-03-21T14:23:58.253Z,10.32
2023-03-21T14:25:02.711Z,10.57
2023-03-21T14:26:04.613Z,10.15
2023-03-21T14:27:06.592Z,11.05
2023-03-21T14:28:14.776Z,10.77
2023-03-21T14:29:33.860Z,11.13
2023-03-21T14:30:41.169Z,10.57
2023-03-21T14:31:46.958Z,10.88
2023-03-21T14:32:49.049Z,10.20
2023-03-21T14:33:54.248Z,10.55
2023-03-21T14:34:58.184Z,10.68
2023-03-21T14:36:04.824Z,10.27
2023-03-21T14:37:11.740Z,11.00
2023-03-21T14:38:24.968Z,10.48
2023-03-21T14:39:31.793Z,10.85
2023-03-21T14:40:33.531Z,11.07